Time;durP1;ratioP1;P1;durP2;ratioP2;P2;SDS_P1;SDS_P2;PMS_P1;PMS_P2;Temp;Humidity;BMP_temperature;BMP_pressure;BME280_temperature;BME280_humidity;BME280_pressure;Samples;Min_cycle;Max_cycle;Signal;HPM_P1;HPM_P2
2022/12/31 00:01:35;;;;;;;23.02;16.23;;;;;;;7.33;100.00;99282.38;5060355;28;20035;-63
2022/12/31 00:04:02;;;;;;;23.05;17.00;;;;;;;7.34;100.00;99289.22;5028472;28;20855;-64
2022/12/31 00:06:33;;;;;;;22.15;16.60;;;;;;;7.06;100.00;99249.75;5065862;28;20424;-65
2022/12/31 00:09:01;;;;;;;26.25;16.92;;;;;;;7.25;100.00;99284.69;5044275;28;20083;-63
2022/12/31 00:11:29;;;;;;;27.50;17.70;;;;;;;7.33;100.00;99292.72;5021797;28;20111;-62
2022/12/31 00:13:55;;;;;;;23.63;17.50;;;;;;;7.36;100.00;99310.63;5043364;28;20032;-63
2022/12/31 00:16:30;;;;;;;29.05;18.30;;;;;;;7.42;100.00;99310.19;5043038;28;20040;-62
2022/12/31 00:18:59;;;;;;;27.27;18.92;;;;;;;7.40;100.00;99312.06;5045253;28;20115;-61
2022/12/31 00:21:25;;;;;;;;;;;;;;;7.37;100.00;99301.91;5048982;28;20111;-61
2022/12/31 00:23:51;;;;;;;28.30;19.48;;;;;;;7.36;100.00;99292.50;5044270;28;20398;-60
2022/12/31 00:26:23;;;;;;;28.58;19.38;;;;;;;7.39;100.00;99294.03;5041704;28;20347;-61
2022/12/31 00:28:49;;;;;;;27.83;18.70;;;;;;;7.31;100.00;99279.06;5032129;28;20031;-59
2022/12/31 00:31:18;;;;;;;27.83;19.30;;;;;;;7.19;100.00;99267.00;5046363;28;20029;-60
2022/12/31 00:33:44;;;;;;;24.95;18.05;;;;;;;7.28;100.00;99274.94;5044018;28;20041;-60
2022/12/31 00:36:21;;;;;;;29.50;19.27;;;;;;;7.29;100.00;99279.16;5030133;28;20570;-62
2022/12/31 00:38:48;;;;;;;26.30;18.05;;;;;;;7.24;100.00;99280.44;5029983;28;20017;-63
2022/12/31 00:41:15;;;;;;;27.60;18.70;;;;;;;7.33;100.00;99287.53;5046264;28;20027;-63
2022/12/31 00:43:41;;;;;;;26.25;18.65;;;;;;;7.28;100.00;99285.31;5040507;28;20029;-60
2022/12/31 00:46:10;;;;;;;31.13;20.67;;;;;;;7.20;100.00;99290.16;5044767;28;20036;-62
2022/12/31 00:48:35;;;;;;;27.95;19.10;;;;;;;7.21;100.00;99289.25;5029405;28;20048;-60
2022/12/31 00:51:03;;;;;;;29.38;19.95;;;;;;;7.08;100.00;99266.00;5061605;28;20025;-62
2022/12/31 00:53:28;;;;;;;27.35;20.63;;;;;;;6.96;100.00;99251.31;5046557;28;20494;-60
2022/12/31 00:56:12;;;;;;;28.77;20.55;;;;;;;7.05;100.00;99263.59;5026709;28;20032;-61
2022/12/31 00:58:38;;;;;;;30.48;20.08;;;;;;;6.98;100.00;99258.97;5047625;28;20067;-61
2022/12/31 01:01:11;;;;;;;27.27;19.17;;;;;;;7.25;100.00;99297.63;5028157;28;20052;-60
2022/12/31 01:03:38;;;;;;;27.38;20.35;;;;;;;7.10;100.00;99309.81;5040576;28;20029;-61
2022/12/31 01:06:04;;;;;;;30.55;20.15;;;;;;;7.14;100.00;99308.69;5021679;28;20070;-61
2022/12/31 01:08:29;;;;;;;28.20;19.35;;;;;;;7.18;100.00;99315.31;5064730;28;21040;-64
2022/12/31 01:13:38;;;;;;;26.90;20.05;;;;;;;7.03;100.00;99299.09;5059537;28;20673;-62
2022/12/31 01:16:11;;;;;;;28.45;19.65;;;;;;;7.07;100.00;99318.63;5041722;28;20036;-63
2022/12/31 01:18:37;;;;;;;26.35;18.40;;;;;;;7.10;100.00;99336.53;5057974;28;20028;-66
2022/12/31 01:21:05;;;;;;;30.98;19.42;;;;;;;7.08;100.00;99317.72;5046892;28;20036;-63
2022/12/31 01:23:30;;;;;;;26.98;19.17;;;;;;;7.11;100.00;99317.47;5043875;28;20028;-60
2022/12/31 01:25:59;;;;;;;27.02;19.60;;;;;;;7.08;100.00;99316.88;5046178;28;20098;-61
2022/12/31 01:28:24;;;;;;;29.10;19.42;;;;;;;6.57;100.00;99231.59;5046375;28;20160;-62
2022/12/31 01:30:50;;;;;;;24.48;16.85;;;;;;;6.97;100.00;99319.38;5051481;28;20478;-63
2022/12/31 01:33:15;;;;;;;26.35;18.77;;;;;;;6.90;100.00;99337.88;5063595;28;20445;-63
2022/12/31 01:35:41;;;;;;;26.23;17.55;;;;;;;6.70;100.00;99292.69;5058080;28;20060;-64
2022/12/31 01:38:06;;;;;;;25.52;17.70;;;;;;;6.99;100.00;99327.84;5019763;28;20025;-64
2022/12/31 01:40:36;;;;;;;26.17;16.70;;;;;;;7.09;100.00;99331.47;5044752;28;20148;-60
2022/12/31 01:43:01;;;;;;;;;;;;;;;7.12;100.00;99344.19;5039376;28;20029;-64
2022/12/31 01:45:27;;;;;;;24.50;16.48;;;;;;;7.15;100.00;99349.13;5028284;28;19922;-60
2022/12/31 01:47:56;;;;;;;26.00;17.38;;;;;;;7.15;100.00;99351.72;5062799;28;20021;-62
2022/12/31 01:50:28;;;;;;;25.17;16.83;;;;;;;7.07;100.00;99343.66;5050729;28;20029;-63
2022/12/31 01:52:59;;;;;;;23.30;16.80;;;;;;;7.06;100.00;99350.63;5044711;28;20032;-62
2022/12/31 01:55:35;;;;;;;24.80;16.95;;;;;;;6.99;100.00;99359.72;5030256;28;20120;-62
2022/12/31 01:58:11;;;;;;;27.95;17.55;;;;;;;6.95;100.00;99349.66;5044679;28;20032;-61
2022/12/31 02:00:37;;;;;;;24.42;16.85;;;;;;;6.82;100.00;99342.72;5047887;28;20074;-61
2022/12/31 02:03:04;;;;;;;25.63;18.52;;;;;;;6.79;100.00;99344.69;5064834;28;20059;-62
2022/12/31 02:05:50;;;;;;;26.25;17.52;;;;;;;6.63;100.00;99330.22;5034544;28;20141;-61
2022/12/31 02:08:16;;;;;;;24.20;15.68;;;;;;;6.57;100.00;99315.13;5048717;28;20056;-63
2022/12/31 02:10:42;;;;;;;25.20;17.15;;;;;;;6.77;100.00;99339.63;5026727;28;20083;-61
2022/12/31 02:13:07;;;;;;;25.45;17.25;;;;;;;6.62;100.00;99313.03;5048626;28;20024;-61
2022/12/31 02:15:52;;;;;;;25.50;17.10;;;;;;;6.82;100.00;99341.91;5049416;28;20099;-62
2022/12/31 02:18:34;;;;;;;23.88;16.70;;;;;;;6.83;100.00;99335.81;5047522;28;20033;-64
2022/12/31 02:21:11;;;;;;;23.13;16.73;;;;;;;6.71;100.00;99345.22;5025002;28;20033;-61
2022/12/31 02:24:10;;;;;;;23.45;16.55;;;;;;;6.65;100.00;99328.34;5066478;28;20153;-60
2022/12/31 02:26:56;;;;;;;23.83;16.63;;;;;;;6.67;100.00;99334.25;5043461;28;20491;-60
2022/12/31 02:29:31;;;;;;;26.90;17.05;;;;;;;6.66;100.00;99337.78;5053377;28;20107;-61
2022/12/31 02:32:04;;;;;;;22.23;15.50;;;;;;;6.74;100.00;99332.09;5049291;28;20028;-61
2022/12/31 02:34:33;;;;;;;23.75;15.95;;;;;;;6.59;100.00;99305.53;5048142;28;20024;-62
2022/12/31 02:37:00;;;;;;;23.70;16.75;;;;;;;6.87;100.00;99345.03;5048074;28;20024;-63
2022/12/31 02:39:26;;;;;;;24.75;17.15;;;;;;;6.85;100.00;99347.69;5067427;28;20032;-63
2022/12/31 02:41:52;;;;;;;26.63;16.35;;;;;;;6.81;100.00;99355.75;5029837;28;20828;-62
2022/12/31 02:44:30;;;;;;;21.08;16.20;;;;;;;6.84;100.00;99371.06;5024999;28;20364;-60
2022/12/31 02:47:15;;;;;;;22.63;15.38;;;;;;;6.86;100.00;99366.63;5059152;28;20024;-64
2022/12/31 02:49:46;;;;;;;23.25;15.95;;;;;;;6.76;100.00;99374.16;5066557;28;20483;-62
2022/12/31 02:52:30;;;;;;;24.33;16.42;;;;;;;6.72;100.00;99370.13;5040015;28;20032;-62
2022/12/31 02:55:25;;;;;;;25.05;16.98;;;;;;;6.72;100.00;99377.91;5057291;28;20024;-62
2022/12/31 02:58:10;;;;;;;25.98;16.30;;;;;;;6.64;100.00;99377.56;5059995;28;20870;-62
2022/12/31 03:03:26;;;;;;;22.75;15.68;;;;;;;6.67;100.00;99377.38;5042248;28;20034;-60
2022/12/31 03:05:52;;;;;;;24.17;16.95;;;;;;;6.37;100.00;99333.69;5049387;28;20040;-61
2022/12/31 03:08:22;;;;;;;25.45;16.60;;;;;;;6.63;100.00;99365.59;5042160;28;20102;-62
2022/12/31 03:10:48;;;;;;;23.85;17.23;;;;;;;6.71;100.00;99361.53;5039896;28;20040;-59
2022/12/31 03:13:13;;;;;;;25.80;16.40;;;;;;;6.72;100.00;99365.78;5066156;28;20029;-60
2022/12/31 03:15:39;;;;;;;22.98;16.50;;;;;;;6.71;100.00;99374.47;5071483;28;20032;-63
2022/12/31 03:18:07;;;;;;;22.88;16.40;;;;;;;6.69;100.00;99363.41;5040536;28;20052;-65
2022/12/31 03:23:25;;;;;;;25.27;15.65;;;;;;;6.71;100.00;99365.88;5060630;28;20047;-64
2022/12/31 03:25:52;;;;;;;22.75;15.43;;;;;;;6.57;100.00;99364.22;5043931;28;20051;-61
2022/12/31 03:28:19;;;;;;;21.15;15.27;;;;;;;6.48;100.00;99344.13;5048145;28;20032;-63
2022/12/31 03:30:47;;;;;;;22.10;14.88;;;;;;;6.70;100.00;99384.94;5063624;28;20024;-62
2022/12/31 03:33:13;;;;;;;21.25;14.95;;;;;;;6.64;100.00;99401.63;5030367;28;20127;-64
2022/12/31 03:35:40;;;;;;;24.13;15.10;;;;;;;6.69;100.00;99407.34;5043557;28;20834;-61
2022/12/31 03:38:06;;;;;;;22.42;15.23;;;;;;;6.63;100.00;99412.91;5041819;28;20028;-64
2022/12/31 03:40:33;;;;;;;20.73;15.57;;;;;;;6.32;100.00;99383.91;5047929;28;21308;-63
2022/12/31 03:42:59;;;;;;;22.45;14.35;;;;;;;6.48;100.00;99406.13;5047589;28;20487;-63
2022/12/31 03:45:24;;;;;;;23.75;14.52;;;;;;;6.58;100.00;99424.47;5047345;28;20072;-64
2022/12/31 03:47:50;;;;;;;19.90;14.35;;;;;;;6.29;100.00;99384.09;5058228;28;20025;-61
2022/12/31 03:50:17;;;;;;;20.60;14.85;;;;;;;6.50;100.00;99432.72;5042602;28;20033;-60
2022/12/31 03:52:43;;;;;;;21.20;14.50;;;;;;;6.47;100.00;99418.25;5041034;28;20016;-61
2022/12/31 03:55:10;;;;;;;20.85;14.88;;;;;;;6.51;100.00;99421.44;5047661;28;20028;-62
2022/12/31 03:57:36;;;;;;;23.10;15.35;;;;;;;6.54;100.00;99426.44;5064462;28;20059;-64
2022/12/31 04:00:04;;;;;;;21.00;14.73;;;;;;;6.56;100.00;99421.16;5044173;28;20128;-61
2022/12/31 04:02:30;;;;;;;22.25;14.70;;;;;;;6.66;100.00;99424.78;5047121;28;20020;-62
2022/12/31 04:04:55;;;;;;;19.48;14.05;;;;;;;6.71;100.00;99433.09;5065332;28;20937;-63
2022/12/31 04:07:20;;;;;;;19.25;13.35;;;;;;;6.67;100.00;99422.13;5043488;28;20117;-64
2022/12/31 04:09:46;;;;;;;18.00;13.73;;;;;;;6.47;100.00;99395.00;5061793;28;20021;-61
2022/12/31 04:12:11;;;;;;;17.98;12.75;;;;;;;6.60;100.00;99404.53;5047103;28;20036;-61
2022/12/31 04:14:37;;;;;;;20.17;13.63;;;;;;;6.71;100.00;99433.91;5064995;28;20489;-63
2022/12/31 04:17:02;;;;;;;19.23;13.38;;;;;;;6.70;100.00;99434.84;5047951;28;20051;-61
2022/12/31 04:19:27;;;;;;;20.05;13.93;;;;;;;6.69;100.00;99420.25;5045409;28;20040;-61
2022/12/31 04:21:53;;;;;;;18.17;13.35;;;;;;;6.63;100.00;99428.41;5045421;28;20024;-62
2022/12/31 04:24:18;;;;;;;19.35;13.75;;;;;;;6.35;100.00;99429.34;5047256;28;20021;-64
2022/12/31 04:26:44;;;;;;;21.38;13.45;;;;;;;6.22;100.00;99424.13;5060287;28;20089;-63
2022/12/31 04:29:10;;;;;;;18.73;13.75;;;;;;;6.37;100.00;99424.94;5030937;28;20824;-62
2022/12/31 04:31:35;;;;;;;18.90;13.43;;;;;;;6.23;100.00;99428.38;5034076;28;20032;-63
2022/12/31 04:34:01;;;;;;;20.13;12.90;;;;;;;6.42;100.00;99432.38;5030066;28;20035;-63
2022/12/31 04:36:26;;;;;;;18.55;13.45;;;;;;;6.39;100.00;99430.84;5046021;28;20085;-63
2022/12/31 04:38:52;;;;;;;17.95;12.48;;;;;;;6.10;100.00;99392.19;5047222;28;20046;-63
2022/12/31 04:41:17;;;;;;;17.80;13.00;;;;;;;6.38;100.00;99430.94;5041412;28;20020;-63
2022/12/31 04:43:51;;;;;;;19.40;13.05;;;;;;;6.48;100.00;99430.25;5040895;28;20059;-61
2022/12/31 04:46:18;;;;;;;19.13;12.75;;;;;;;6.21;100.00;99396.66;5051716;28;20587;-63
2022/12/31 04:48:44;;;;;;;18.75;13.10;;;;;;;6.44;100.00;99435.69;5027404;28;20105;-60
2022/12/31 04:51:09;;;;;;;19.45;13.25;;;;;;;6.19;100.00;99393.38;5059748;28;20695;-62
2022/12/31 04:53:35;;;;;;;19.80;12.77;;;;;;;6.17;100.00;99397.81;5045835;28;20503;-62
2022/12/31 04:56:00;;;;;;;18.65;12.23;;;;;;;6.12;100.00;99399.84;5047971;28;20028;-61
2022/12/31 04:58:26;;;;;;;17.73;12.05;;;;;;;6.45;100.00;99442.53;5059540;28;20537;-63
2022/12/31 05:00:54;;;;;;;18.42;12.15;;;;;;;6.31;100.00;99440.81;5045826;28;20136;-61
2022/12/31 05:03:21;;;;;;;18.00;12.07;;;;;;;6.21;100.00;99448.31;5032495;28;20113;-63
2022/12/31 05:05:46;;;;;;;17.33;11.27;;;;;;;6.08;100.00;99444.88;5045631;28;20035;-64
2022/12/31 05:08:12;;;;;;;16.23;11.55;;;;;;;6.32;100.00;99461.38;5064095;28;20037;-63
2022/12/31 05:10:46;;;;;;;17.33;11.85;;;;;;;6.01;100.00;99428.09;5047051;28;20025;-62
2022/12/31 05:13:12;;;;;;;17.98;11.18;;;;;;;6.27;100.00;99460.84;5027443;28;20088;-63
2022/12/31 05:15:38;;;;;;;15.70;11.52;;;;;;;6.18;100.00;99473.50;5037580;28;20021;-60
2022/12/31 05:18:04;;;;;;;16.73;11.60;;;;;;;5.99;100.00;99435.94;5064390;28;20020;-63
2022/12/31 05:20:29;;;;;;;16.92;11.57;;;;;;;6.19;100.00;99475.16;5067837;28;20060;-64
2022/12/31 05:22:55;;;;;;;18.23;11.40;;;;;;;6.16;100.00;99465.84;5066739;28;20106;-62
2022/12/31 05:25:20;;;;;;;16.95;11.02;;;;;;;6.21;100.00;99463.00;5045720;28;20372;-62
2022/12/31 05:27:46;;;;;;;16.80;11.43;;;;;;;5.88;100.00;99418.50;5046545;28;20032;-63
2022/12/31 05:30:12;;;;;;;14.60;10.43;;;;;;;6.18;100.00;99464.00;5048833;28;20363;-62
2022/12/31 05:32:37;;;;;;;16.77;10.15;;;;;;;6.18;100.00;99458.84;5060223;28;20125;-62
2022/12/31 05:35:04;;;;;;;15.05;10.55;;;;;;;5.86;100.00;99438.41;5044183;28;20478;-61
2022/12/31 05:37:29;;;;;;;15.25;10.63;;;;;;;6.07;100.00;99480.16;5030840;28;20406;-62
2022/12/31 05:39:55;;;;;;;17.52;11.40;;;;;;;6.05;100.00;99470.84;5049383;28;20031;-63
2022/12/31 05:42:21;;;;;;;16.92;10.88;;;;;;;5.99;100.00;99469.50;5056273;28;20428;-63
2022/12/31 05:44:46;;;;;;;18.30;10.55;;;;;;;6.13;100.00;99476.38;5031313;28;20020;-61
2022/12/31 05:47:13;;;;;;;17.40;11.40;;;;;;;6.11;100.00;99483.38;5046043;28;20036;-61
2022/12/31 05:49:38;;;;;;;13.95;9.93;;;;;;;5.87;100.00;99441.81;5045721;28;20127;-63
2022/12/31 05:52:04;;;;;;;14.25;10.30;;;;;;;5.83;100.00;99459.22;5049147;28;20139;-62
2022/12/31 05:54:29;;;;;;;16.75;9.80;;;;;;;6.07;100.00;99500.81;5067874;28;20914;-62
2022/12/31 05:56:55;;;;;;;15.82;10.07;;;;;;;6.06;100.00;99518.97;5029187;28;20044;-62
2022/12/31 05:59:20;;;;;;;15.23;10.38;;;;;;;6.03;100.00;99519.19;5032463;28;20029;-61
2022/12/31 06:01:46;;;;;;;14.70;9.63;;;;;;;5.88;100.00;99490.75;5048079;28;20037;-63
2022/12/31 06:04:11;;;;;;;14.98;10.23;;;;;;;6.11;100.00;99520.34;5048263;28;20501;-60
2022/12/31 06:06:37;;;;;;;17.02;10.70;;;;;;;6.08;100.00;99524.91;5057309;28;20033;-59
2022/12/31 06:09:02;;;;;;;15.20;10.15;;;;;;;6.14;100.00;99525.34;5031987;28;20027;-62
2022/12/31 06:11:28;;;;;;;14.50;9.27;;;;;;;6.19;100.00;99534.53;5047009;28;20483;-63
2022/12/31 06:13:53;;;;;;;13.38;9.32;;;;;;;6.19;100.00;99537.97;5048234;28;20028;-61
2022/12/31 06:16:19;;;;;;;13.02;8.93;;;;;;;6.03;100.00;99532.91;5042684;28;20487;-63
2022/12/31 06:18:49;;;;;;;13.65;8.65;;;;;;;6.13;100.00;99546.09;5071410;28;20597;-63
2022/12/31 06:21:18;;;;;;;16.13;9.32;;;;;;;6.12;100.00;99541.84;5067630;28;20337;-62
2022/12/31 06:23:43;;;;;;;14.13;8.85;;;;;;;5.94;100.00;99546.34;5048545;28;20082;-62
2022/12/31 06:26:08;;;;;;;14.57;9.75;;;;;;;5.99;100.00;99554.69;5029054;28;20478;-66
2022/12/31 06:28:34;;;;;;;11.32;8.32;;;;;;;5.97;100.00;99547.03;5062396;28;20037;-63
2022/12/31 06:31:01;;;;;;;12.90;8.73;;;;;;;5.74;100.00;99504.50;5027184;28;20123;-63
2022/12/31 06:33:26;;;;;;;15.18;8.90;;;;;;;5.95;100.00;99566.06;5047392;28;20115;-63
2022/12/31 06:35:57;;;;;;;15.18;9.40;;;;;;;5.91;100.00;99564.59;5048296;28;20440;-63
2022/12/31 06:38:26;;;;;;;13.15;8.63;;;;;;;5.72;100.00;99570.84;5028857;28;20029;-62
2022/12/31 06:40:52;;;;;;;13.77;8.57;;;;;;;5.50;100.00;99536.91;5064684;28;20021;-63
2022/12/31 06:43:17;;;;;;;13.55;8.57;;;;;;;5.73;100.00;99571.66;5044453;28;20560;-65
2022/12/31 06:45:43;;;;;;;14.70;8.35;;;;;;;5.87;100.00;99574.28;5046049;28;20071;-63
2022/12/31 06:48:08;;;;;;;12.25;8.77;;;;;;;5.90;100.00;99562.94;5043995;28;20036;-63
2022/12/31 06:50:34;;;;;;;14.40;9.02;;;;;;;5.87;100.00;99558.78;5047675;28;20419;-62
2022/12/31 06:52:59;;;;;;;13.70;8.63;;;;;;;5.95;100.00;99566.94;5048729;28;20668;-63
2022/12/31 06:55:25;;;;;;;11.73;8.48;;;;;;;5.57;100.00;99515.81;5067256;28;20063;-61
2022/12/31 06:57:51;;;;;;;13.52;8.48;;;;;;;5.83;100.00;99577.13;5066159;28;20434;-62
2022/12/31 07:00:17;;;;;;;14.85;9.35;;;;;;;5.66;100.00;99571.22;5048298;28;20322;-63
2022/12/31 07:02:54;;;;;;;15.45;9.48;;;;;;;5.89;100.00;99584.50;5064402;28;20086;-62
2022/12/31 07:06:04;;;;;;;16.02;9.40;;;;;;;5.78;100.00;99596.28;5048272;28;20028;-62
2022/12/31 07:08:44;;;;;;;14.85;8.68;;;;;;;5.83;100.00;99623.59;4979227;28;20039;-61
2022/12/31 07:11:20;;;;;;;12.95;8.68;;;;;;;5.51;100.00;99627.13;5054838;28;20121;-64
2022/12/31 07:13:56;;;;;;;15.10;9.05;;;;;;;5.55;100.00;99630.38;5066103;28;20079;-61
2022/12/31 07:16:41;;;;;;;14.63;9.10;;;;;;;5.65;100.00;99618.56;5058313;28;20032;-61
2022/12/31 07:19:31;;;;;;;12.80;8.90;;;;;;;5.71;100.00;99597.59;5062358;28;20062;-62
2022/12/31 07:21:58;;;;;;;11.88;7.65;;;;;;;5.61;100.00;99569.84;5043333;28;20474;-62
2022/12/31 07:24:24;;;;;;;13.65;9.02;;;;;;;5.68;100.00;99600.34;5032048;28;20545;-62
2022/12/31 07:27:17;;;;;;;15.50;9.60;;;;;;;5.56;100.00;99608.78;5050060;28;20029;-62
2022/12/31 07:30:01;;;;;;;13.90;9.30;;;;;;;5.18;100.00;99549.91;5063561;28;20024;-60
2022/12/31 07:32:57;;;;;;;13.82;8.35;;;;;;;5.35;100.00;99551.53;5025139;28;20025;-63
2022/12/31 07:35:29;;;;;;;13.57;8.82;;;;;;;5.61;100.00;99613.69;5064019;28;20098;-61
2022/12/31 07:38:09;;;;;;;14.18;8.70;;;;;;;5.67;100.00;99628.81;5045018;28;20103;-60
2022/12/31 07:41:05;;;;;;;15.35;9.90;;;;;;;5.58;100.00;99632.75;5060347;28;20047;-62
2022/12/31 07:43:36;;;;;;;14.27;8.75;;;;;;;5.77;100.00;99643.69;5062190;28;20938;-60
2022/12/31 07:46:30;;;;;;;13.75;9.35;;;;;;;5.75;100.00;99652.44;5041754;28;20039;-62
2022/12/31 07:48:58;;;;;;;14.18;8.45;;;;;;;5.71;100.00;99653.50;5040939;28;20119;-62
2022/12/31 07:51:23;;;;;;;12.43;7.95;;;;;;;5.53;100.00;99614.13;5061599;28;20083;-60
2022/12/31 07:53:49;;;;;;;14.18;8.98;;;;;;;5.81;100.00;99653.84;5058133;28;20648;-62
2022/12/31 07:56:14;;;;;;;13.80;8.38;;;;;;;5.82;100.00;99648.56;5043949;28;20074;-62
2022/12/31 07:59:14;;;;;;;15.75;8.77;;;;;;;5.94;100.00;99641.88;5046497;28;20034;-61
2022/12/31 08:01:39;;;;;;;;;;;;;;;5.96;100.00;99658.94;5062073;28;20020;-61
2022/12/31 08:04:20;;;;;;;12.63;7.90;;;;;;;5.93;100.00;99653.09;5063346;28;19924;-64
2022/12/31 08:07:14;;;;;;;13.02;8.35;;;;;;;6.07;100.00;99667.81;5040506;28;20037;-62
2022/12/31 08:10:18;;;;;;;12.52;8.05;;;;;;;6.12;100.00;99651.13;5046775;28;20043;-60
2022/12/31 08:12:44;;;;;;;11.25;7.53;;;;;;;6.21;100.00;99648.94;5044226;28;20025;-60
2022/12/31 08:15:14;;;;;;;11.70;7.78;;;;;;;6.32;100.00;99669.78;5037973;28;20070;-65
2022/12/31 08:17:40;;;;;;;13.63;8.43;;;;;;;6.33;100.00;99656.78;5050183;28;20441;-62
2022/12/31 08:20:06;;;;;;;13.10;8.02;;;;;;;6.34;100.00;99649.88;5044163;28;20044;-61
2022/12/31 08:22:40;;;;;;;12.90;7.65;;;;;;;6.16;100.00;99621.63;5043260;28;20086;-62
2022/12/31 08:25:17;;;;;;;12.73;8.23;;;;;;;6.36;100.00;99650.59;5064103;28;20487;-61
2022/12/31 08:27:51;;;;;;;16.25;8.50;;;;;;;6.18;100.00;99649.94;5065510;28;20154;-62
2022/12/31 08:30:19;;;;;;;13.00;8.07;;;;;;;6.11;100.00;99659.78;5060851;28;20674;-62
2022/12/31 08:32:47;;;;;;;13.38;8.13;;;;;;;6.08;100.00;99666.91;5044976;28;20055;-64
2022/12/31 08:35:22;;;;;;;15.70;9.43;;;;;;;6.03;100.00;99668.94;5046459;28;20442;-61
2022/12/31 08:38:10;;;;;;;14.40;9.15;;;;;;;6.06;100.00;99673.91;5043956;28;20112;-61
2022/12/31 08:40:42;;;;;;;13.70;8.52;;;;;;;6.02;100.00;99673.25;5035181;28;20036;-62
2022/12/31 08:43:38;;;;;;;15.02;9.77;;;;;;;5.90;100.00;99677.34;5040700;28;20064;-60
2022/12/31 08:46:10;;;;;;;18.13;9.98;;;;;;;6.00;100.00;99684.59;5044176;28;20028;-63
2022/12/31 08:48:40;;;;;;;13.13;8.32;;;;;;;5.97;100.00;99694.19;5043371;28;20033;-64
2022/12/31 08:51:12;;;;;;;14.13;8.75;;;;;;;6.08;100.00;99714.22;5038463;28;20044;-62
2022/12/31 08:53:38;;;;;;;13.85;8.68;;;;;;;6.19;100.00;99708.44;5061317;28;20067;-64
2022/12/31 08:56:11;;;;;;;13.93;7.72;;;;;;;6.21;100.00;99711.75;5040752;28;20408;-61
2022/12/31 08:59:06;;;;;;;12.05;7.97;;;;;;;6.32;100.00;99716.28;5045624;28;20855;-62
2022/12/31 09:01:51;;;;;;;12.75;8.20;;;;;;;6.40;100.00;99718.41;5033059;28;20048;-62
2022/12/31 09:04:27;;;;;;;12.50;7.18;;;;;;;6.46;100.00;99718.88;5061528;28;20024;-62
2022/12/31 09:07:01;;;;;;;12.55;7.32;;;;;;;6.22;100.00;99684.16;5047947;28;20343;-60
2022/12/31 09:09:32;;;;;;;12.50;7.28;;;;;;;6.37;100.00;99683.28;5026652;28;20029;-63
2022/12/31 09:12:24;;;;;;;11.98;7.43;;;;;;;6.68;100.00;99728.78;5064015;28;20034;-62
2022/12/31 09:14:57;;;;;;;11.98;7.63;;;;;;;6.73;100.00;99729.31;5059874;28;20669;-62
2022/12/31 09:17:44;;;;;;;12.02;7.82;;;;;;;6.69;100.00;99729.59;5029033;28;20126;-61
2022/12/31 09:20:21;;;;;;;11.43;7.28;;;;;;;6.66;100.00;99733.19;5041297;28;20128;-61
2022/12/31 09:22:47;;;;;;;10.75;7.40;;;;;;;6.49;100.00;99681.69;5063345;28;20941;-64
2022/12/31 09:25:15;;;;;;;11.63;7.28;;;;;;;6.72;100.00;99738.00;5050777;28;20063;-62
2022/12/31 09:28:11;;;;;;;13.38;7.85;;;;;;;6.78;100.00;99741.97;5027064;28;20558;-61
2022/12/31 09:30:57;;;;;;;13.30;7.40;;;;;;;6.64;100.00;99741.94;5042458;28;20032;-63
2022/12/31 09:33:29;;;;;;;13.20;7.28;;;;;;;6.68;100.00;99749.44;5045286;28;20132;-63
2022/12/31 09:36:00;;;;;;;11.45;7.57;;;;;;;6.71;100.00;99738.91;5060547;28;20544;-63
2022/12/31 09:38:51;;;;;;;11.68;7.60;;;;;;;6.87;100.00;99754.31;5029315;28;20028;-61
2022/12/31 09:41:35;;;;;;;11.50;6.63;;;;;;;6.78;100.00;99723.88;5025513;28;20429;-63
2022/12/31 09:44:16;;;;;;;12.68;6.97;;;;;;;6.97;100.00;99757.16;5053702;28;20035;-60
2022/12/31 09:47:18;;;;;;;10.85;6.88;;;;;;;6.88;100.00;99762.91;5043921;28;20043;-64
2022/12/31 09:50:16;;;;;;;9.95;7.00;;;;;;;7.00;100.00;99774.28;5066492;28;20029;-63
2022/12/31 09:53:12;;;;;;;9.73;6.65;;;;;;;6.97;100.00;99780.44;5050374;28;20099;-61
2022/12/31 09:56:16;;;;;;;10.38;6.95;;;;;;;7.02;100.00;99772.41;5039998;28;20025;-65
2022/12/31 09:59:21;;;;;;;9.52;6.95;;;;;;;6.99;100.00;99760.53;5041458;28;20108;-62
2022/12/31 10:01:50;;;;;;;11.18;7.57;;;;;;;7.00;100.00;99764.75;4961141;28;20097;-65
2022/12/31 10:04:41;;;;;;;12.38;8.30;;;;;;;6.98;100.00;99760.59;5025252;28;20167;-64
2022/12/31 10:07:35;;;;;;;14.88;8.65;;;;;;;7.04;100.00;99757.63;5043252;28;20025;-63
2022/12/31 10:10:21;;;;;;;16.30;8.63;;;;;;;7.10;100.00;99770.19;5028310;28;20120;-63
2022/12/31 10:13:02;;;;;;;12.93;8.07;;;;;;;6.84;100.00;99731.22;5028565;28;20028;-64
2022/12/31 10:15:45;;;;;;;11.93;7.68;;;;;;;7.08;100.00;99754.78;5061670;28;20114;-64
2022/12/31 10:18:46;;;;;;;11.63;7.13;;;;;;;7.07;100.00;99763.44;5060173;28;20040;-65
2022/12/31 10:21:31;;;;;;;12.32;7.72;;;;;;;7.16;100.00;99769.00;5041866;28;20028;-65
2022/12/31 10:24:18;;;;;;;12.68;7.85;;;;;;;7.13;100.00;99767.41;5064419;28;20036;-67
2022/12/31 10:27:02;;;;;;;14.20;8.30;;;;;;;7.28;100.00;99770.81;5047394;28;20026;-65
2022/12/31 10:29:46;;;;;;;13.63;8.02;;;;;;;7.20;100.00;99762.72;5045922;28;20032;-63
2022/12/31 10:32:16;;;;;;;11.25;7.70;;;;;;;7.32;100.00;99775.72;5027402;28;20033;-65
2022/12/31 10:35:12;;;;;;;13.57;7.82;;;;;;;7.34;100.00;99772.19;5057255;28;20059;-65
2022/12/31 10:38:00;;;;;;;11.68;7.07;;;;;;;7.32;100.00;99759.38;5034082;28;20082;-64
2022/12/31 10:44:16;;;;;;;10.45;6.80;;;;;;;7.48;100.00;99760.06;5051538;28;20452;-61
2022/12/31 10:47:12;;;;;;;12.52;7.18;;;;;;;7.44;100.00;99757.75;5061125;28;20383;-62
2022/12/31 10:50:11;;;;;;;12.68;7.10;;;;;;;7.38;100.00;99751.19;5045791;28;20036;-62
2022/12/31 10:52:55;;;;;;;13.60;8.25;;;;;;;7.49;100.00;99738.41;5022584;28;20455;-63
2022/12/31 10:55:44;;;;;;;12.52;8.45;;;;;;;7.62;100.00;99735.88;5052325;28;20039;-63
2022/12/31 10:58:15;;;;;;;11.63;7.55;;;;;;;7.49;100.00;99706.53;5050951;28;20032;-59
2022/12/31 11:00:55;;;;;;;13.38;7.93;;;;;;;7.76;100.00;99745.34;5035182;28;20466;-60
2022/12/31 11:03:39;;;;;;;12.68;7.30;;;;;;;7.75;100.00;99735.91;5025717;28;20065;-62
2022/12/31 11:06:36;;;;;;;12.82;6.75;;;;;;;7.74;100.00;99713.56;5046623;28;20052;-60
2022/12/31 11:09:20;;;;;;;11.20;6.38;;;;;;;7.73;100.00;99698.13;5068992;28;20112;-62
2022/12/31 11:12:01;;;;;;;10.15;6.40;;;;;;;7.66;100.00;99679.56;5063474;28;20062;-61
2022/12/31 11:14:55;;;;;;;9.93;6.22;;;;;;;7.99;100.00;99730.06;5045359;28;20031;-64
2022/12/31 11:17:32;;;;;;;8.88;5.10;;;;;;;8.02;100.00;99725.50;5058627;28;20075;-61
2022/12/31 11:20:19;;;;;;;10.00;6.13;;;;;;;8.03;100.00;99726.34;5041504;28;20020;-60
2022/12/31 11:22:53;;;;;;;10.88;5.93;;;;;;;8.04;100.00;99736.59;5064618;28;20029;-63
2022/12/31 11:25:29;;;;;;;10.25;5.57;;;;;;;7.98;100.00;99738.78;5043006;28;20103;-61
2022/12/31 11:28:04;;;;;;;11.48;6.30;;;;;;;7.99;100.00;99741.25;5022705;28;20075;-62
2022/12/31 11:30:46;;;;;;;9.40;6.30;;;;;;;8.07;100.00;99736.41;5063523;28;20036;-61
2022/12/31 11:33:24;;;;;;;9.45;5.65;;;;;;;8.17;100.00;99728.03;5057002;28;20740;-59
2022/12/31 11:36:27;;;;;;;10.25;5.65;;;;;;;8.23;100.00;99725.88;5064793;28;20147;-60
2022/12/31 11:38:59;;;;;;;9.63;5.00;;;;;;;8.34;100.00;99721.72;5065117;28;20024;-62
2022/12/31 11:41:33;;;;;;;9.20;5.13;;;;;;;8.32;100.00;99708.84;5062825;28;20083;-61
2022/12/31 11:44:04;;;;;;;10.15;6.07;;;;;;;8.37;100.00;99701.59;5059026;28;20708;-62
2022/12/31 11:47:22;;;;;;;8.80;4.85;;;;;;;8.44;100.00;99700.28;5045663;28;20020;-64
2022/12/31 11:50:14;;;;;;;8.98;4.85;;;;;;;8.43;100.00;99690.00;4959646;28;20476;-62
2022/12/31 11:53:00;;;;;;;10.68;5.57;;;;;;;8.45;100.00;99698.50;5046423;28;20542;-62
2022/12/31 11:55:37;;;;;;;10.43;5.85;;;;;;;8.47;100.00;99696.66;5062730;28;20044;-63
2022/12/31 11:58:15;;;;;;;9.07;5.20;;;;;;;8.45;100.00;99699.38;5043491;28;20721;-60
2022/12/31 12:01:13;;;;;;;10.05;5.05;;;;;;;8.18;100.00;99654.56;5047817;28;20406;-62
2022/12/31 12:03:42;;;;;;;7.38;4.38;;;;;;;8.25;100.00;99666.13;5035271;28;20041;-62